sensor_id;sensor_type;location;lat;lon;timestamp;P1;durP1;ratioP1;P2;durP2;ratioP2
66919;SDS011;53831;52.090;17.026;2022-11-28T00:00:54;33.63;;;16.77;;
66919;SDS011;53831;52.090;17.026;2022-11-28T00:01:54;32.13;;;15.93;;
66919;SDS011;53831;52.090;17.026;2022-11-28T00:02:55;37.58;;;16.50;;
66919;SDS011;53831;52.090;17.026;2022-11-28T00:03:56;35.28;;;16.73;;
66919;SDS011;53831;52.090;17.026;2022-11-28T00:04:56;31.02;;;16.08;;
66919;SDS011;53831;52.090;17.026;2022-11-28T00:06:01;37.03;;;16.58;;
66919;SDS011;53831;52.090;17.026;2022-11-28T00:07:03;38.13;;;17.30;;
66919;SDS011;53831;52.090;17.026;2022-11-28T00:08:04;39.00;;;16.52;;
66919;SDS011;53831;52.090;17.026;2022-11-28T00:09:05;34.05;;;16.38;;
66919;SDS011;53831;52.090;17.026;2022-11-28T00:10:07;35.03;;;16.90;;
66919;SDS011;53831;52.090;17.026;2022-11-28T00:11:08;37.90;;;16.63;;
66919;SDS011;53831;52.090;17.026;2022-11-28T00:12:12;33.33;;;16.38;;
66919;SDS011;53831;52.090;17.026;2022-11-28T00:13:13;34.13;;;16.38;;
66919;SDS011;53831;52.090;17.026;2022-11-28T00:14:14;35.22;;;16.50;;
66919;SDS011;53831;52.090;17.026;2022-11-28T00:15:15;34.03;;;17.65;;
66919;SDS011;53831;52.090;17.026;2022-11-28T00:16:16;34.53;;;16.80;;
66919;SDS011;53831;52.090;17.026;2022-11-28T00:17:20;36.65;;;17.35;;
66919;SDS011;53831;52.090;17.026;2022-11-28T00:18:21;35.17;;;16.05;;
66919;SDS011;53831;52.090;17.026;2022-11-28T00:19:21;35.33;;;17.40;;
66919;SDS011;53831;52.090;17.026;2022-11-28T00:20:22;34.60;;;16.73;;
66919;SDS011;53831;52.090;17.026;2022-11-28T00:21:23;38.08;;;17.30;;
66919;SDS011;53831;52.090;17.026;2022-11-28T00:22:23;39.08;;;17.35;;
66919;SDS011;53831;52.090;17.026;2022-11-28T00:23:27;31.65;;;17.02;;
66919;SDS011;53831;52.090;17.026;2022-11-28T00:24:29;36.10;;;16.30;;
66919;SDS011;53831;52.090;17.026;2022-11-28T00:25:29;35.38;;;17.77;;
66919;SDS011;53831;52.090;17.026;2022-11-28T00:26:34;36.53;;;16.80;;
66919;SDS011;53831;52.090;17.026;2022-11-28T00:27:38;31.88;;;16.25;;
66919;SDS011;53831;52.090;17.026;2022-11-28T00:28:40;35.53;;;16.73;;
66919;SDS011;53831;52.090;17.026;2022-11-28T00:29:41;34.40;;;15.98;;
66919;SDS011;53831;52.090;17.026;2022-11-28T00:30:41;35.22;;;16.45;;
66919;SDS011;53831;52.090;17.026;2022-11-28T00:31:42;36.83;;;17.52;;
66919;SDS011;53831;52.090;17.026;2022-11-28T00:32:43;36.35;;;17.17;;
66919;SDS011;53831;52.090;17.026;2022-11-28T00:33:43;37.50;;;17.25;;
66919;SDS011;53831;52.090;17.026;2022-11-28T00:34:44;36.67;;;17.10;;
66919;SDS011;53831;52.090;17.026;2022-11-28T00:35:45;34.85;;;16.95;;
66919;SDS011;53831;52.090;17.026;2022-11-28T00:36:46;37.95;;;17.08;;
66919;SDS011;53831;52.090;17.026;2022-11-28T00:37:46;34.72;;;16.45;;
66919;SDS011;53831;52.090;17.026;2022-11-28T00:38:47;33.35;;;16.00;;
66919;SDS011;53831;52.090;17.026;2022-11-28T00:39:49;33.75;;;16.23;;
66919;SDS011;53831;52.090;17.026;2022-11-28T00:40:56;34.65;;;17.02;;
66919;SDS011;53831;52.090;17.026;2022-11-28T00:41:58;35.58;;;16.25;;
66919;SDS011;53831;52.090;17.026;2022-11-28T00:42:59;39.75;;;17.73;;
66919;SDS011;53831;52.090;17.026;2022-11-28T00:44:00;36.35;;;16.17;;
66919;SDS011;53831;52.090;17.026;2022-11-28T00:45:01;35.83;;;16.98;;
66919;SDS011;53831;52.090;17.026;2022-11-28T00:46:02;36.15;;;16.80;;
66919;SDS011;53831;52.090;17.026;2022-11-28T00:47:03;36.85;;;17.42;;
66919;SDS011;53831;52.090;17.026;2022-11-28T00:48:03;35.72;;;17.38;;
66919;SDS011;53831;52.090;17.026;2022-11-28T00:49:04;37.03;;;17.05;;
66919;SDS011;53831;52.090;17.026;2022-11-28T00:50:05;38.78;;;18.27;;
66919;SDS011;53831;52.090;17.026;2022-11-28T00:52:14;35.75;;;16.20;;
66919;SDS011;53831;52.090;17.026;2022-11-28T00:53:15;34.13;;;15.85;;
66919;SDS011;53831;52.090;17.026;2022-11-28T00:54:15;33.63;;;16.50;;
66919;SDS011;53831;52.090;17.026;2022-11-28T00:55:16;38.03;;;17.63;;
66919;SDS011;53831;52.090;17.026;2022-11-28T00:56:18;34.55;;;16.52;;
66919;SDS011;53831;52.090;17.026;2022-11-28T00:57:21;37.42;;;16.95;;
66919;SDS011;53831;52.090;17.026;2022-11-28T00:58:21;33.47;;;16.90;;
66919;SDS011;53831;52.090;17.026;2022-11-28T00:59:22;37.65;;;17.27;;
66919;SDS011;53831;52.090;17.026;2022-11-28T01:00:23;35.58;;;16.80;;
66919;SDS011;53831;52.090;17.026;2022-11-28T01:01:25;35.38;;;16.75;;
66919;SDS011;53831;52.090;17.026;2022-11-28T01:02:28;38.13;;;17.23;;
66919;SDS011;53831;52.090;17.026;2022-11-28T01:03:28;36.83;;;17.60;;
66919;SDS011;53831;52.090;17.026;2022-11-28T01:04:29;36.15;;;16.92;;
66919;SDS011;53831;52.090;17.026;2022-11-28T01:05:29;38.72;;;16.88;;
66919;SDS011;53831;52.090;17.026;2022-11-28T01:06:35;37.58;;;17.40;;
66919;SDS011;53831;52.090;17.026;2022-11-28T01:07:37;35.33;;;17.05;;
66919;SDS011;53831;52.090;17.026;2022-11-28T01:08:41;35.50;;;16.55;;
66919;SDS011;53831;52.090;17.026;2022-11-28T01:09:41;35.13;;;16.83;;
66919;SDS011;53831;52.090;17.026;2022-11-28T01:10:43;34.72;;;17.25;;
66919;SDS011;53831;52.090;17.026;2022-11-28T01:11:45;36.65;;;16.95;;
66919;SDS011;53831;52.090;17.026;2022-11-28T01:12:48;38.47;;;17.38;;
66919;SDS011;53831;52.090;17.026;2022-11-28T01:13:49;33.92;;;16.73;;
66919;SDS011;53831;52.090;17.026;2022-11-28T01:14:49;39.00;;;16.77;;
66919;SDS011;53831;52.090;17.026;2022-11-28T01:15:50;34.85;;;16.75;;
66919;SDS011;53831;52.090;17.026;2022-11-28T01:16:51;37.40;;;17.08;;
66919;SDS011;53831;52.090;17.026;2022-11-28T01:17:52;37.42;;;16.90;;
66919;SDS011;53831;52.090;17.026;2022-11-28T01:18:53;37.40;;;16.70;;
66919;SDS011;53831;52.090;17.026;2022-11-28T01:19:53;36.33;;;16.83;;
66919;SDS011;53831;52.090;17.026;2022-11-28T01:20:54;35.75;;;16.05;;
66919;SDS011;53831;52.090;17.026;2022-11-28T01:21:55;39.25;;;18.63;;
66919;SDS011;53831;52.090;17.026;2022-11-28T01:22:55;35.03;;;16.55;;
66919;SDS011;53831;52.090;17.026;2022-11-28T01:23:56;37.70;;;17.38;;
66919;SDS011;53831;52.090;17.026;2022-11-28T01:24:57;34.10;;;17.02;;
66919;SDS011;53831;52.090;17.026;2022-11-28T01:25:57;38.80;;;17.17;;
66919;SDS011;53831;52.090;17.026;2022-11-28T01:26:59;41.67;;;17.05;;
66919;SDS011;53831;52.090;17.026;2022-11-28T01:28:00;36.30;;;17.70;;
66919;SDS011;53831;52.090;17.026;2022-11-28T01:29:01;36.33;;;17.10;;
66919;SDS011;53831;52.090;17.026;2022-11-28T01:30:01;35.33;;;17.00;;
66919;SDS011;53831;52.090;17.026;2022-11-28T01:31:04;36.03;;;17.00;;
66919;SDS011;53831;52.090;17.026;2022-11-28T01:32:05;38.05;;;17.17;;
66919;SDS011;53831;52.090;17.026;2022-11-28T01:33:06;36.00;;;17.58;;
66919;SDS011;53831;52.090;17.026;2022-11-28T01:34:07;34.88;;;16.80;;
66919;SDS011;53831;52.090;17.026;2022-11-28T01:35:07;33.67;;;17.10;;
66919;SDS011;53831;52.090;17.026;2022-11-28T01:36:09;37.17;;;17.25;;
66919;SDS011;53831;52.090;17.026;2022-11-28T01:37:10;33.03;;;16.08;;
66919;SDS011;53831;52.090;17.026;2022-11-28T01:38:11;35.92;;;16.85;;
66919;SDS011;53831;52.090;17.026;2022-11-28T01:39:12;36.42;;;16.90;;
66919;SDS011;53831;52.090;17.026;2022-11-28T01:40:14;36.65;;;16.45;;
66919;SDS011;53831;52.090;17.026;2022-11-28T01:41:17;35.80;;;17.10;;
66919;SDS011;53831;52.090;17.026;2022-11-28T01:42:20;39.13;;;16.65;;
66919;SDS011;53831;52.090;17.026;2022-11-28T01:43:20;37.83;;;17.25;;
66919;SDS011;53831;52.090;17.026;2022-11-28T01:45:27;34.37;;;15.93;;
66919;SDS011;53831;52.090;17.026;2022-11-28T01:46:30;38.50;;;16.77;;
66919;SDS011;53831;52.090;17.026;2022-11-28T01:47:32;36.72;;;16.60;;
66919;SDS011;53831;52.090;17.026;2022-11-28T01:48:38;35.15;;;16.13;;
66919;SDS011;53831;52.090;17.026;2022-11-28T01:49:40;38.15;;;16.63;;
66919;SDS011;53831;52.090;17.026;2022-11-28T01:50:44;35.05;;;16.13;;
66919;SDS011;53831;52.090;17.026;2022-11-28T01:51:47;36.25;;;16.25;;
66919;SDS011;53831;52.090;17.026;2022-11-28T01:52:52;35.10;;;16.42;;
66919;SDS011;53831;52.090;17.026;2022-11-28T01:53:58;38.05;;;17.00;;
66919;SDS011;53831;52.090;17.026;2022-11-28T01:54:59;35.92;;;17.08;;
66919;SDS011;53831;52.090;17.026;2022-11-28T01:56:02;32.72;;;16.08;;
66919;SDS011;53831;52.090;17.026;2022-11-28T01:57:12;36.42;;;17.23;;
66919;SDS011;53831;52.090;17.026;2022-11-28T01:58:16;34.40;;;16.92;;
66919;SDS011;53831;52.090;17.026;2022-11-28T01:59:17;37.08;;;16.80;;
66919;SDS011;53831;52.090;17.026;2022-11-28T02:00:19;33.38;;;17.00;;
66919;SDS011;53831;52.090;17.026;2022-11-28T02:01:21;35.45;;;17.40;;
66919;SDS011;53831;52.090;17.026;2022-11-28T02:02:25;36.70;;;17.23;;
66919;SDS011;53831;52.090;17.026;2022-11-28T02:03:33;33.00;;;16.80;;
66919;SDS011;53831;52.090;17.026;2022-11-28T02:04:42;33.72;;;16.67;;
66919;SDS011;53831;52.090;17.026;2022-11-28T02:05:44;36.33;;;16.73;;
66919;SDS011;53831;52.090;17.026;2022-11-28T02:06:46;35.53;;;16.85;;
66919;SDS011;53831;52.090;17.026;2022-11-28T02:07:47;36.10;;;16.65;;
66919;SDS011;53831;52.090;17.026;2022-11-28T02:08:50;37.35;;;16.75;;
66919;SDS011;53831;52.090;17.026;2022-11-28T02:09:51;31.90;;;15.98;;
66919;SDS011;53831;52.090;17.026;2022-11-28T02:15:21;36.33;;;16.75;;
66919;SDS011;53831;52.090;17.026;2022-11-28T02:18:11;34.92;;;16.33;;
66919;SDS011;53831;52.090;17.026;2022-11-28T02:31:37;33.28;;;15.45;;
66919;SDS011;53831;52.090;17.026;2022-11-28T02:34:09;34.03;;;15.98;;
66919;SDS011;53831;52.090;17.026;2022-11-28T02:35:17;33.72;;;16.13;;
66919;SDS011;53831;52.090;17.026;2022-11-28T02:36:30;33.22;;;16.88;;
66919;SDS011;53831;52.090;17.026;2022-11-28T02:37:36;35.50;;;16.70;;
66919;SDS011;53831;52.090;17.026;2022-11-28T02:43:51;31.83;;;16.13;;
66919;SDS011;53831;52.090;17.026;2022-11-28T02:45:06;34.65;;;16.38;;
66919;SDS011;53831;52.090;17.026;2022-11-28T02:46:46;37.85;;;16.25;;
66919;SDS011;53831;52.090;17.026;2022-11-28T02:47:53;34.70;;;16.05;;
66919;SDS011;53831;52.090;17.026;2022-11-28T02:49:05;34.33;;;17.05;;
66919;SDS011;53831;52.090;17.026;2022-11-28T02:50:24;35.03;;;16.38;;
66919;SDS011;53831;52.090;17.026;2022-11-28T02:51:30;33.75;;;15.18;;
66919;SDS011;53831;52.090;17.026;2022-11-28T02:52:33;33.35;;;16.52;;
66919;SDS011;53831;52.090;17.026;2022-11-28T02:53:38;34.33;;;15.68;;
66919;SDS011;53831;52.090;17.026;2022-11-28T02:54:42;36.50;;;16.70;;
66919;SDS011;53831;52.090;17.026;2022-11-28T02:55:44;34.05;;;15.98;;
66919;SDS011;53831;52.090;17.026;2022-11-28T02:56:49;38.60;;;16.92;;
66919;SDS011;53831;52.090;17.026;2022-11-28T02:57:52;32.22;;;16.55;;
66919;SDS011;53831;52.090;17.026;2022-11-28T02:58:53;34.97;;;16.30;;
66919;SDS011;53831;52.090;17.026;2022-11-28T02:59:54;30.90;;;15.85;;
66919;SDS011;53831;52.090;17.026;2022-11-28T03:00:55;30.90;;;16.23;;
66919;SDS011;53831;52.090;17.026;2022-11-28T03:01:56;34.95;;;16.58;;
66919;SDS011;53831;52.090;17.026;2022-11-28T03:03:03;35.75;;;16.17;;
66919;SDS011;53831;52.090;17.026;2022-11-28T03:04:37;32.72;;;15.52;;
66919;SDS011;53831;52.090;17.026;2022-11-28T03:08:34;32.65;;;15.80;;
66919;SDS011;53831;52.090;17.026;2022-11-28T03:13:39;31.63;;;16.55;;
66919;SDS011;53831;52.090;17.026;2022-11-28T03:14:52;33.30;;;15.15;;
66919;SDS011;53831;52.090;17.026;2022-11-28T03:17:31;31.20;;;15.48;;
66919;SDS011;53831;52.090;17.026;2022-11-28T03:19:03;34.78;;;15.88;;
66919;SDS011;53831;52.090;17.026;2022-11-28T03:20:12;31.13;;;15.88;;
66919;SDS011;53831;52.090;17.026;2022-11-28T03:21:22;32.97;;;15.88;;
66919;SDS011;53831;52.090;17.026;2022-11-28T03:22:28;31.20;;;15.85;;
66919;SDS011;53831;52.090;17.026;2022-11-28T03:23:36;33.88;;;16.80;;
66919;SDS011;53831;52.090;17.026;2022-11-28T03:24:44;36.08;;;15.93;;
66919;SDS011;53831;52.090;17.026;2022-11-28T03:26:06;33.17;;;16.23;;
66919;SDS011;53831;52.090;17.026;2022-11-28T03:27:17;34.65;;;16.23;;
66919;SDS011;53831;52.090;17.026;2022-11-28T03:29:02;33.20;;;15.80;;
66919;SDS011;53831;52.090;17.026;2022-11-28T03:30:23;38.75;;;16.30;;
66919;SDS011;53831;52.090;17.026;2022-11-28T03:31:35;34.42;;;15.95;;
66919;SDS011;53831;52.090;17.026;2022-11-28T03:32:45;38.30;;;16.40;;
66919;SDS011;53831;52.090;17.026;2022-11-28T03:33:50;33.10;;;16.00;;
66919;SDS011;53831;52.090;17.026;2022-11-28T03:34:58;35.08;;;16.75;;
66919;SDS011;53831;52.090;17.026;2022-11-28T03:36:05;33.03;;;16.58;;
66919;SDS011;53831;52.090;17.026;2022-11-28T03:37:10;34.40;;;16.63;;
66919;SDS011;53831;52.090;17.026;2022-11-28T03:38:20;35.10;;;16.42;;
66919;SDS011;53831;52.090;17.026;2022-11-28T03:39:27;32.67;;;16.10;;
66919;SDS011;53831;52.090;17.026;2022-11-28T03:40:35;35.95;;;16.75;;
66919;SDS011;53831;52.090;17.026;2022-11-28T03:41:41;33.25;;;16.63;;
66919;SDS011;53831;52.090;17.026;2022-11-28T03:42:57;35.78;;;17.02;;
66919;SDS011;53831;52.090;17.026;2022-11-28T03:44:02;33.85;;;16.25;;
66919;SDS011;53831;52.090;17.026;2022-11-28T03:45:25;38.88;;;17.38;;
66919;SDS011;53831;52.090;17.026;2022-11-28T03:46:35;35.45;;;16.08;;
66919;SDS011;53831;52.090;17.026;2022-11-28T03:47:41;33.83;;;16.42;;
66919;SDS011;53831;52.090;17.026;2022-11-28T03:48:45;34.60;;;16.65;;
66919;SDS011;53831;52.090;17.026;2022-11-28T03:49:50;35.78;;;17.33;;
66919;SDS011;53831;52.090;17.026;2022-11-28T03:50:57;34.90;;;17.00;;
66919;SDS011;53831;52.090;17.026;2022-11-28T03:52:09;35.70;;;16.70;;
66919;SDS011;53831;52.090;17.026;2022-11-28T03:53:23;36.53;;;16.33;;
66919;SDS011;53831;52.090;17.026;2022-11-28T03:54:37;34.17;;;16.77;;
66919;SDS011;53831;52.090;17.026;2022-11-28T03:55:47;33.75;;;16.55;;
66919;SDS011;53831;52.090;17.026;2022-11-28T03:56:52;35.97;;;17.40;;
66919;SDS011;53831;52.090;17.026;2022-11-28T03:58:01;34.78;;;16.60;;
66919;SDS011;53831;52.090;17.026;2022-11-28T03:59:17;39.50;;;17.05;;
66919;SDS011;53831;52.090;17.026;2022-11-28T04:00:24;33.70;;;16.88;;
66919;SDS011;53831;52.090;17.026;2022-11-28T04:04:04;36.88;;;16.85;;
66919;SDS011;53831;52.090;17.026;2022-11-28T04:05:18;34.13;;;16.80;;
66919;SDS011;53831;52.090;17.026;2022-11-28T04:06:27;34.83;;;16.30;;
66919;SDS011;53831;52.090;17.026;2022-11-28T04:07:36;35.50;;;17.15;;
66919;SDS011;53831;52.090;17.026;2022-11-28T04:09:00;34.50;;;17.08;;
66919;SDS011;53831;52.090;17.026;2022-11-28T04:10:14;36.13;;;16.92;;
66919;SDS011;53831;52.090;17.026;2022-11-28T04:11:30;36.65;;;16.92;;
66919;SDS011;53831;52.090;17.026;2022-11-28T04:13:52;36.05;;;16.45;;
66919;SDS011;53831;52.090;17.026;2022-11-28T04:15:01;38.10;;;17.00;;
66919;SDS011;53831;52.090;17.026;2022-11-28T04:17:24;35.47;;;16.67;;
66919;SDS011;53831;52.090;17.026;2022-11-28T04:19:54;37.58;;;18.48;;
66919;SDS011;53831;52.090;17.026;2022-11-28T04:22:43;35.38;;;16.40;;
66919;SDS011;53831;52.090;17.026;2022-11-28T04:23:47;35.97;;;17.33;;
66919;SDS011;53831;52.090;17.026;2022-11-28T04:24:51;37.65;;;17.63;;
66919;SDS011;53831;52.090;17.026;2022-11-28T04:25:57;36.13;;;17.23;;
66919;SDS011;53831;52.090;17.026;2022-11-28T04:27:09;35.25;;;17.65;;
66919;SDS011;53831;52.090;17.026;2022-11-28T04:28:14;36.85;;;17.95;;
66919;SDS011;53831;52.090;17.026;2022-11-28T04:29:20;38.92;;;18.00;;
66919;SDS011;53831;52.090;17.026;2022-11-28T04:30:24;35.47;;;16.75;;
66919;SDS011;53831;52.090;17.026;2022-11-28T04:31:24;38.38;;;18.63;;
66919;SDS011;53831;52.090;17.026;2022-11-28T04:32:25;35.22;;;16.77;;
66919;SDS011;53831;52.090;17.026;2022-11-28T04:33:31;38.10;;;18.13;;
66919;SDS011;53831;52.090;17.026;2022-11-28T04:34:34;36.78;;;17.40;;
66919;SDS011;53831;52.090;17.026;2022-11-28T04:35:37;36.05;;;17.48;;
66919;SDS011;53831;52.090;17.026;2022-11-28T04:36:41;37.65;;;18.13;;
66919;SDS011;53831;52.090;17.026;2022-11-28T04:37:44;41.08;;;18.23;;
66919;SDS011;53831;52.090;17.026;2022-11-28T04:38:47;33.47;;;17.10;;
66919;SDS011;53831;52.090;17.026;2022-11-28T04:39:55;39.92;;;18.42;;
66919;SDS011;53831;52.090;17.026;2022-11-28T04:41:00;35.22;;;17.95;;
66919;SDS011;53831;52.090;17.026;2022-11-28T04:42:15;36.47;;;18.10;;
66919;SDS011;53831;52.090;17.026;2022-11-28T04:43:21;36.67;;;17.70;;
66919;SDS011;53831;52.090;17.026;2022-11-28T04:44:30;38.00;;;17.80;;
66919;SDS011;53831;52.090;17.026;2022-11-28T04:45:48;36.45;;;18.50;;
66919;SDS011;53831;52.090;17.026;2022-11-28T04:46:54;35.47;;;17.48;;
66919;SDS011;53831;52.090;17.026;2022-11-28T04:47:56;36.13;;;18.05;;
66919;SDS011;53831;52.090;17.026;2022-11-28T04:48:57;37.38;;;18.67;;
66919;SDS011;53831;52.090;17.026;2022-11-28T04:49:58;36.90;;;18.23;;
66919;SDS011;53831;52.090;17.026;2022-11-28T04:52:41;35.38;;;17.67;;
66919;SDS011;53831;52.090;17.026;2022-11-28T04:53:49;37.65;;;18.10;;
66919;SDS011;53831;52.090;17.026;2022-11-28T04:55:21;38.15;;;17.65;;
66919;SDS011;53831;52.090;17.026;2022-11-28T04:56:41;35.70;;;17.45;;
66919;SDS011;53831;52.090;17.026;2022-11-28T04:57:51;37.05;;;18.10;;
66919;SDS011;53831;52.090;17.026;2022-11-28T04:58:55;35.47;;;17.33;;
66919;SDS011;53831;52.090;17.026;2022-11-28T04:59:58;39.78;;;18.13;;
66919;SDS011;53831;52.090;17.026;2022-11-28T05:01:04;40.17;;;18.45;;
66919;SDS011;53831;52.090;17.026;2022-11-28T05:02:07;37.63;;;18.35;;
66919;SDS011;53831;52.090;17.026;2022-11-28T05:03:09;37.38;;;18.92;;
66919;SDS011;53831;52.090;17.026;2022-11-28T05:04:11;37.63;;;17.58;;
66919;SDS011;53831;52.090;17.026;2022-11-28T05:05:17;38.35;;;19.10;;
66919;SDS011;53831;52.090;17.026;2022-11-28T05:06:21;38.60;;;19.20;;
66919;SDS011;53831;52.090;17.026;2022-11-28T05:07:27;36.72;;;17.95;;
66919;SDS011;53831;52.090;17.026;2022-11-28T05:08:28;40.45;;;19.20;;
66919;SDS011;53831;52.090;17.026;2022-11-28T05:09:28;42.72;;;18.45;;
66919;SDS011;53831;52.090;17.026;2022-11-28T05:10:29;39.88;;;19.00;;
66919;SDS011;53831;52.090;17.026;2022-11-28T05:11:30;35.28;;;17.95;;
66919;SDS011;53831;52.090;17.026;2022-11-28T05:12:31;38.53;;;18.73;;
66919;SDS011;53831;52.090;17.026;2022-11-28T05:13:32;39.33;;;18.20;;
66919;SDS011;53831;52.090;17.026;2022-11-28T05:14:32;38.20;;;18.40;;
66919;SDS011;53831;52.090;17.026;2022-11-28T05:15:33;38.58;;;18.58;;
66919;SDS011;53831;52.090;17.026;2022-11-28T05:16:33;39.30;;;18.80;;
66919;SDS011;53831;52.090;17.026;2022-11-28T05:17:34;39.78;;;18.98;;
66919;SDS011;53831;52.090;17.026;2022-11-28T05:18:35;39.03;;;18.42;;
66919;SDS011;53831;52.090;17.026;2022-11-28T05:19:35;37.35;;;18.30;;
66919;SDS011;53831;52.090;17.026;2022-11-28T05:20:36;38.03;;;18.27;;
66919;SDS011;53831;52.090;17.026;2022-11-28T05:21:37;39.78;;;19.02;;
66919;SDS011;53831;52.090;17.026;2022-11-28T05:22:38;38.58;;;18.00;;
66919;SDS011;53831;52.090;17.026;2022-11-28T05:23:40;33.97;;;17.70;;
66919;SDS011;53831;52.090;17.026;2022-11-28T05:24:42;35.65;;;17.80;;
66919;SDS011;53831;52.090;17.026;2022-11-28T05:25:42;34.63;;;17.85;;
66919;SDS011;53831;52.090;17.026;2022-11-28T05:26:43;36.40;;;18.38;;
66919;SDS011;53831;52.090;17.026;2022-11-28T05:27:44;36.92;;;19.45;;
66919;SDS011;53831;52.090;17.026;2022-11-28T05:28:45;39.08;;;18.15;;
66919;SDS011;53831;52.090;17.026;2022-11-28T05:29:48;35.85;;;17.95;;
66919;SDS011;53831;52.090;17.026;2022-11-28T05:30:56;38.33;;;17.92;;
66919;SDS011;53831;52.090;17.026;2022-11-28T05:31:58;36.63;;;18.83;;
66919;SDS011;53831;52.090;17.026;2022-11-28T05:32:58;35.42;;;17.52;;
66919;SDS011;53831;52.090;17.026;2022-11-28T05:33:59;38.03;;;18.48;;
66919;SDS011;53831;52.090;17.026;2022-11-28T05:35:00;35.78;;;17.90;;
66919;SDS011;53831;52.090;17.026;2022-11-28T05:36:02;41.97;;;19.90;;
66919;SDS011;53831;52.090;17.026;2022-11-28T05:37:04;39.65;;;18.30;;
66919;SDS011;53831;52.090;17.026;2022-11-28T05:38:05;35.55;;;17.95;;
66919;SDS011;53831;52.090;17.026;2022-11-28T05:39:06;40.85;;;18.63;;
66919;SDS011;53831;52.090;17.026;2022-11-28T05:40:06;37.58;;;18.20;;
66919;SDS011;53831;52.090;17.026;2022-11-28T05:42:08;34.08;;;16.73;;
66919;SDS011;53831;52.090;17.026;2022-11-28T05:43:09;38.00;;;18.35;;
66919;SDS011;53831;52.090;17.026;2022-11-28T05:44:10;36.88;;;17.15;;
66919;SDS011;53831;52.090;17.026;2022-11-28T05:45:11;37.53;;;18.48;;
66919;SDS011;53831;52.090;17.026;2022-11-28T05:46:11;39.55;;;18.58;;
66919;SDS011;53831;52.090;17.026;2022-11-28T05:47:12;37.58;;;17.55;;
66919;SDS011;53831;52.090;17.026;2022-11-28T05:48:14;37.00;;;17.55;;
66919;SDS011;53831;52.090;17.026;2022-11-28T05:49:15;36.13;;;18.27;;
66919;SDS011;53831;52.090;17.026;2022-11-28T05:50:16;36.63;;;17.17;;
66919;SDS011;53831;52.090;17.026;2022-11-28T05:51:17;36.20;;;17.92;;
66919;SDS011;53831;52.090;17.026;2022-11-28T05:52:17;39.90;;;18.40;;
66919;SDS011;53831;52.090;17.026;2022-11-28T05:53:18;38.90;;;18.60;;
66919;SDS011;53831;52.090;17.026;2022-11-28T05:54:19;38.80;;;17.95;;
66919;SDS011;53831;52.090;17.026;2022-11-28T05:55:20;37.40;;;18.67;;
66919;SDS011;53831;52.090;17.026;2022-11-28T05:56:20;38.47;;;18.15;;
66919;SDS011;53831;52.090;17.026;2022-11-28T05:57:24;38.50;;;18.63;;
66919;SDS011;53831;52.090;17.026;2022-11-28T05:58:25;37.63;;;18.27;;
66919;SDS011;53831;52.090;17.026;2022-11-28T05:59:25;35.90;;;18.27;;
66919;SDS011;53831;52.090;17.026;2022-11-28T06:00:26;38.97;;;19.27;;
66919;SDS011;53831;52.090;17.026;2022-11-28T06:01:27;38.38;;;17.75;;
66919;SDS011;53831;52.090;17.026;2022-11-28T06:02:28;38.92;;;18.17;;
66919;SDS011;53831;52.090;17.026;2022-11-28T06:03:29;38.22;;;18.77;;
66919;SDS011;53831;52.090;17.026;2022-11-28T06:04:29;35.63;;;18.08;;
66919;SDS011;53831;52.090;17.026;2022-11-28T06:05:30;40.45;;;18.65;;
66919;SDS011;53831;52.090;17.026;2022-11-28T06:06:32;36.95;;;18.55;;
66919;SDS011;53831;52.090;17.026;2022-11-28T06:07:33;38.78;;;17.75;;
66919;SDS011;53831;52.090;17.026;2022-11-28T06:08:34;40.17;;;19.95;;
66919;SDS011;53831;52.090;17.026;2022-11-28T06:09:35;37.40;;;18.40;;
66919;SDS011;53831;52.090;17.026;2022-11-28T06:10:35;37.50;;;18.17;;
66919;SDS011;53831;52.090;17.026;2022-11-28T06:11:36;37.50;;;18.13;;
66919;SDS011;53831;52.090;17.026;2022-11-28T06:12:36;36.70;;;17.50;;
66919;SDS011;53831;52.090;17.026;2022-11-28T06:13:37;36.53;;;17.65;;
66919;SDS011;53831;52.090;17.026;2022-11-28T06:14:38;36.50;;;18.05;;
66919;SDS011;53831;52.090;17.026;2022-11-28T06:15:41;39.95;;;18.73;;
66919;SDS011;53831;52.090;17.026;2022-11-28T06:16:43;42.25;;;19.35;;
66919;SDS011;53831;52.090;17.026;2022-11-28T06:17:44;37.53;;;17.65;;
66919;SDS011;53831;52.090;17.026;2022-11-28T06:18:44;37.95;;;18.20;;
66919;SDS011;53831;52.090;17.026;2022-11-28T06:19:45;36.85;;;17.42;;
66919;SDS011;53831;52.090;17.026;2022-11-28T06:20:46;36.55;;;17.98;;
66919;SDS011;53831;52.090;17.026;2022-11-28T06:21:48;40.15;;;18.90;;
66919;SDS011;53831;52.090;17.026;2022-11-28T06:22:49;37.42;;;18.02;;
66919;SDS011;53831;52.090;17.026;2022-11-28T06:23:50;35.92;;;17.83;;
66919;SDS011;53831;52.090;17.026;2022-11-28T06:24:51;38.25;;;18.02;;
66919;SDS011;53831;52.090;17.026;2022-11-28T06:25:51;34.25;;;18.15;;
66919;SDS011;53831;52.090;17.026;2022-11-28T06:26:52;36.97;;;17.90;;
66919;SDS011;53831;52.090;17.026;2022-11-28T06:27:54;36.50;;;18.27;;
66919;SDS011;53831;52.090;17.026;2022-11-28T06:28:54;37.50;;;18.00;;
66919;SDS011;53831;52.090;17.026;2022-11-28T06:29:55;37.80;;;17.40;;
66919;SDS011;53831;52.090;17.026;2022-11-28T06:30:56;37.65;;;18.35;;
66919;SDS011;53831;52.090;17.026;2022-11-28T06:31:56;37.85;;;17.63;;
66919;SDS011;53831;52.090;17.026;2022-11-28T06:32:57;38.72;;;17.70;;
66919;SDS011;53831;52.090;17.026;2022-11-28T06:33:58;38.25;;;18.27;;
66919;SDS011;53831;52.090;17.026;2022-11-28T06:34:58;38.35;;;18.55;;
66919;SDS011;53831;52.090;17.026;2022-11-28T06:35:59;35.40;;;18.63;;
66919;SDS011;53831;52.090;17.026;2022-11-28T06:37:01;35.13;;;17.55;;
66919;SDS011;53831;52.090;17.026;2022-11-28T06:38:02;35.60;;;18.23;;
66919;SDS011;53831;52.090;17.026;2022-11-28T06:39:03;36.63;;;17.95;;
66919;SDS011;53831;52.090;17.026;2022-11-28T06:40:04;34.88;;;17.08;;
66919;SDS011;53831;52.090;17.026;2022-11-28T06:41:06;37.35;;;18.02;;
66919;SDS011;53831;52.090;17.026;2022-11-28T06:42:09;38.90;;;18.00;;
66919;SDS011;53831;52.090;17.026;2022-11-28T06:43:10;34.15;;;17.27;;
66919;SDS011;53831;52.090;17.026;2022-11-28T06:44:14;34.95;;;17.92;;
66919;SDS011;53831;52.090;17.026;2022-11-28T06:45:15;36.85;;;18.08;;
66919;SDS011;53831;52.090;17.026;2022-11-28T06:46:18;38.95;;;18.00;;
66919;SDS011;53831;52.090;17.026;2022-11-28T06:47:19;38.03;;;18.02;;
66919;SDS011;53831;52.090;17.026;2022-11-28T06:48:20;37.80;;;17.15;;
66919;SDS011;53831;52.090;17.026;2022-11-28T06:49:21;36.75;;;16.85;;
66919;SDS011;53831;52.090;17.026;2022-11-28T06:50:22;34.30;;;16.98;;
66919;SDS011;53831;52.090;17.026;2022-11-28T06:51:23;35.58;;;17.45;;
66919;SDS011;53831;52.090;17.026;2022-11-28T06:52:23;36.90;;;16.80;;
66919;SDS011;53831;52.090;17.026;2022-11-28T06:53:24;37.10;;;17.23;;
66919;SDS011;53831;52.090;17.026;2022-11-28T06:54:25;36.75;;;16.83;;
66919;SDS011;53831;52.090;17.026;2022-11-28T06:55:27;35.33;;;17.30;;